sensor_id;sensor_type;location;lat;lon;timestamp;P1;durP1;ratioP1;P2;durP2;ratioP2
41061;SDS011;26812;42.662;23.352;2023-08-17T00:01:38;6.45;;;5.28;;
41061;SDS011;26812;42.662;23.352;2023-08-17T00:04:04;6.72;;;4.97;;
41061;SDS011;26812;42.662;23.352;2023-08-17T00:06:29;6.18;;;4.53;;
41061;SDS011;26812;42.662;23.352;2023-08-17T00:08:55;6.68;;;5.10;;
41061;SDS011;26812;42.662;23.352;2023-08-17T00:11:20;5.88;;;4.68;;
41061;SDS011;26812;42.662;23.352;2023-08-17T00:13:46;6.50;;;4.65;;
41061;SDS011;26812;42.662;23.352;2023-08-17T00:16:11;5.68;;;4.43;;
41061;SDS011;26812;42.662;23.352;2023-08-17T00:18:37;6.25;;;4.10;;
41061;SDS011;26812;42.662;23.352;2023-08-17T00:21:02;4.93;;;3.97;;
41061;SDS011;26812;42.662;23.352;2023-08-17T00:23:28;5.18;;;4.30;;
41061;SDS011;26812;42.662;23.352;2023-08-17T00:25:54;6.68;;;4.07;;
41061;SDS011;26812;42.662;23.352;2023-08-17T00:28:19;8.13;;;4.35;;
41061;SDS011;26812;42.662;23.352;2023-08-17T00:30:44;7.53;;;5.00;;
41061;SDS011;26812;42.662;23.352;2023-08-17T00:33:10;4.50;;;4.10;;
41061;SDS011;26812;42.662;23.352;2023-08-17T00:35:35;4.22;;;3.22;;
41061;SDS011;26812;42.662;23.352;2023-08-17T00:38:01;4.45;;;4.05;;
41061;SDS011;26812;42.662;23.352;2023-08-17T00:40:26;4.55;;;3.47;;
41061;SDS011;26812;42.662;23.352;2023-08-17T00:42:51;5.25;;;3.75;;
41061;SDS011;26812;42.662;23.352;2023-08-17T00:45:17;6.82;;;3.80;;
41061;SDS011;26812;42.662;23.352;2023-08-17T00:47:43;4.13;;;3.72;;
41061;SDS011;26812;42.662;23.352;2023-08-17T00:50:09;6.70;;;4.13;;
41061;SDS011;26812;42.662;23.352;2023-08-17T00:52:36;4.93;;;4.20;;
41061;SDS011;26812;42.662;23.352;2023-08-17T00:55:03;8.15;;;4.38;;
41061;SDS011;26812;42.662;23.352;2023-08-17T00:57:30;5.93;;;3.67;;
41061;SDS011;26812;42.662;23.352;2023-08-17T00:59:56;5.43;;;3.67;;
41061;SDS011;26812;42.662;23.352;2023-08-17T01:02:23;6.50;;;4.50;;
41061;SDS011;26812;42.662;23.352;2023-08-17T01:04:49;3.65;;;3.17;;
41061;SDS011;26812;42.662;23.352;2023-08-17T01:07:14;3.25;;;2.95;;
41061;SDS011;26812;42.662;23.352;2023-08-17T01:09:39;3.92;;;2.90;;
41061;SDS011;26812;42.662;23.352;2023-08-17T01:12:08;3.95;;;3.40;;
41061;SDS011;26812;42.662;23.352;2023-08-17T01:14:50;4.03;;;3.13;;
41061;SDS011;26812;42.662;23.352;2023-08-17T01:19:57;3.15;;;2.92;;
41061;SDS011;26812;42.662;23.352;2023-08-17T01:22:30;5.55;;;3.10;;
41061;SDS011;26812;42.662;23.352;2023-08-17T01:24:58;4.50;;;2.95;;
41061;SDS011;26812;42.662;23.352;2023-08-17T01:27:24;6.40;;;3.00;;
41061;SDS011;26812;42.662;23.352;2023-08-17T01:29:50;3.47;;;3.15;;
41061;SDS011;26812;42.662;23.352;2023-08-17T01:32:18;3.88;;;3.05;;
41061;SDS011;26812;42.662;23.352;2023-08-17T01:34:58;3.25;;;2.45;;
41061;SDS011;26812;42.662;23.352;2023-08-17T01:37:29;4.68;;;2.72;;
41061;SDS011;26812;42.662;23.352;2023-08-17T01:39:58;2.50;;;2.17;;
41061;SDS011;26812;42.662;23.352;2023-08-17T01:42:24;4.90;;;3.13;;
41061;SDS011;26812;42.662;23.352;2023-08-17T01:44:50;4.18;;;2.63;;
41061;SDS011;26812;42.662;23.352;2023-08-17T01:47:20;4.82;;;3.35;;
41061;SDS011;26812;42.662;23.352;2023-08-17T01:49:46;4.15;;;2.42;;
41061;SDS011;26812;42.662;23.352;2023-08-17T01:52:11;3.75;;;2.58;;
41061;SDS011;26812;42.662;23.352;2023-08-17T01:54:37;3.88;;;2.30;;
41061;SDS011;26812;42.662;23.352;2023-08-17T01:57:02;3.08;;;2.53;;
41061;SDS011;26812;42.662;23.352;2023-08-17T01:59:27;5.18;;;2.92;;
41061;SDS011;26812;42.662;23.352;2023-08-17T02:01:53;2.47;;;2.28;;
41061;SDS011;26812;42.662;23.352;2023-08-17T02:04:18;4.60;;;2.97;;
41061;SDS011;26812;42.662;23.352;2023-08-17T02:06:43;3.55;;;2.70;;
41061;SDS011;26812;42.662;23.352;2023-08-17T02:09:09;3.03;;;2.25;;
41061;SDS011;26812;42.662;23.352;2023-08-17T02:11:34;3.63;;;2.58;;
41061;SDS011;26812;42.662;23.352;2023-08-17T02:13:59;2.63;;;2.25;;
41061;SDS011;26812;42.662;23.352;2023-08-17T02:16:25;3.97;;;2.85;;
41061;SDS011;26812;42.662;23.352;2023-08-17T02:18:50;2.65;;;2.35;;
41061;SDS011;26812;42.662;23.352;2023-08-17T02:21:16;4.00;;;2.15;;
41061;SDS011;26812;42.662;23.352;2023-08-17T02:23:41;4.93;;;2.78;;
41061;SDS011;26812;42.662;23.352;2023-08-17T02:26:06;3.35;;;2.85;;
41061;SDS011;26812;42.662;23.352;2023-08-17T02:28:32;3.85;;;2.95;;
41061;SDS011;26812;42.662;23.352;2023-08-17T02:30:59;6.45;;;2.90;;
41061;SDS011;26812;42.662;23.352;2023-08-17T02:33:24;2.83;;;1.95;;
41061;SDS011;26812;42.662;23.352;2023-08-17T02:35:50;4.15;;;2.38;;
41061;SDS011;26812;42.662;23.352;2023-08-17T02:38:16;3.72;;;2.47;;
41061;SDS011;26812;42.662;23.352;2023-08-17T02:40:41;3.72;;;2.70;;
41061;SDS011;26812;42.662;23.352;2023-08-17T02:43:07;3.15;;;2.33;;
41061;SDS011;26812;42.662;23.352;2023-08-17T02:45:33;3.47;;;2.42;;
41061;SDS011;26812;42.662;23.352;2023-08-17T02:47:59;3.30;;;2.47;;
41061;SDS011;26812;42.662;23.352;2023-08-17T02:50:24;2.67;;;2.47;;
41061;SDS011;26812;42.662;23.352;2023-08-17T02:52:49;4.32;;;2.70;;
41061;SDS011;26812;42.662;23.352;2023-08-17T02:55:15;3.28;;;2.15;;
41061;SDS011;26812;42.662;23.352;2023-08-17T02:57:40;3.95;;;2.55;;
41061;SDS011;26812;42.662;23.352;2023-08-17T03:00:06;4.32;;;2.95;;
41061;SDS011;26812;42.662;23.352;2023-08-17T03:02:32;4.57;;;2.60;;
41061;SDS011;26812;42.662;23.352;2023-08-17T03:04:57;5.13;;;2.67;;
41061;SDS011;26812;42.662;23.352;2023-08-17T03:07:22;2.67;;;2.38;;
41061;SDS011;26812;42.662;23.352;2023-08-17T03:09:48;2.55;;;2.20;;
41061;SDS011;26812;42.662;23.352;2023-08-17T03:12:13;2.70;;;2.40;;
41061;SDS011;26812;42.662;23.352;2023-08-17T03:14:38;3.55;;;2.72;;
41061;SDS011;26812;42.662;23.352;2023-08-17T03:17:04;2.63;;;2.28;;
41061;SDS011;26812;42.662;23.352;2023-08-17T03:19:29;3.40;;;2.75;;
41061;SDS011;26812;42.662;23.352;2023-08-17T03:21:55;5.00;;;2.92;;
41061;SDS011;26812;42.662;23.352;2023-08-17T03:24:20;3.90;;;3.20;;
41061;SDS011;26812;42.662;23.352;2023-08-17T03:26:45;3.30;;;2.45;;
41061;SDS011;26812;42.662;23.352;2023-08-17T03:29:11;3.92;;;2.85;;
41061;SDS011;26812;42.662;23.352;2023-08-17T03:31:36;4.55;;;2.80;;
41061;SDS011;26812;42.662;23.352;2023-08-17T03:34:01;3.58;;;2.90;;
41061;SDS011;26812;42.662;23.352;2023-08-17T03:36:27;3.13;;;2.33;;
41061;SDS011;26812;42.662;23.352;2023-08-17T03:38:52;4.95;;;2.92;;
41061;SDS011;26812;42.662;23.352;2023-08-17T03:41:18;5.10;;;3.70;;
41061;SDS011;26812;42.662;23.352;2023-08-17T03:43:43;3.25;;;2.88;;
41061;SDS011;26812;42.662;23.352;2023-08-17T03:46:09;3.97;;;3.67;;
41061;SDS011;26812;42.662;23.352;2023-08-17T03:48:34;2.97;;;2.65;;
41061;SDS011;26812;42.662;23.352;2023-08-17T03:51:00;5.75;;;2.80;;
41061;SDS011;26812;42.662;23.352;2023-08-17T03:53:26;3.80;;;2.33;;
41061;SDS011;26812;42.662;23.352;2023-08-17T03:55:52;2.47;;;2.28;;
41061;SDS011;26812;42.662;23.352;2023-08-17T03:58:17;2.75;;;2.53;;
41061;SDS011;26812;42.662;23.352;2023-08-17T04:00:52;4.63;;;2.55;;
41061;SDS011;26812;42.662;23.352;2023-08-17T04:03:25;2.83;;;2.40;;
41061;SDS011;26812;42.662;23.352;2023-08-17T04:05:50;5.13;;;2.80;;
41061;SDS011;26812;42.662;23.352;2023-08-17T04:08:15;4.45;;;2.40;;
41061;SDS011;26812;42.662;23.352;2023-08-17T04:10:41;3.15;;;2.30;;
41061;SDS011;26812;42.662;23.352;2023-08-17T04:13:06;4.80;;;2.05;;
41061;SDS011;26812;42.662;23.352;2023-08-17T04:15:31;3.90;;;2.22;;
41061;SDS011;26812;42.662;23.352;2023-08-17T04:17:57;3.17;;;2.80;;
41061;SDS011;26812;42.662;23.352;2023-08-17T04:20:22;3.67;;;2.20;;
41061;SDS011;26812;42.662;23.352;2023-08-17T04:22:47;2.70;;;2.45;;
41061;SDS011;26812;42.662;23.352;2023-08-17T04:25:13;3.65;;;3.30;;
41061;SDS011;26812;42.662;23.352;2023-08-17T04:27:39;6.47;;;2.58;;
41061;SDS011;26812;42.662;23.352;2023-08-17T04:30:05;4.32;;;2.83;;
41061;SDS011;26812;42.662;23.352;2023-08-17T04:32:31;2.95;;;2.20;;
41061;SDS011;26812;42.662;23.352;2023-08-17T04:34:56;2.85;;;2.30;;
41061;SDS011;26812;42.662;23.352;2023-08-17T04:37:21;3.28;;;2.30;;
41061;SDS011;26812;42.662;23.352;2023-08-17T04:39:47;2.78;;;2.17;;
41061;SDS011;26812;42.662;23.352;2023-08-17T04:42:14;4.22;;;2.65;;
41061;SDS011;26812;42.662;23.352;2023-08-17T04:44:39;3.47;;;2.25;;
41061;SDS011;26812;42.662;23.352;2023-08-17T04:47:05;2.95;;;2.22;;
41061;SDS011;26812;42.662;23.352;2023-08-17T04:49:30;2.72;;;2.15;;
41061;SDS011;26812;42.662;23.352;2023-08-17T04:51:56;3.67;;;2.90;;
41061;SDS011;26812;42.662;23.352;2023-08-17T04:54:21;2.67;;;2.00;;
41061;SDS011;26812;42.662;23.352;2023-08-17T04:56:47;4.28;;;2.17;;
41061;SDS011;26812;42.662;23.352;2023-08-17T04:59:12;4.32;;;2.85;;
41061;SDS011;26812;42.662;23.352;2023-08-17T05:01:37;2.75;;;2.25;;
41061;SDS011;26812;42.662;23.352;2023-08-17T05:04:03;2.25;;;2.05;;
41061;SDS011;26812;42.662;23.352;2023-08-17T05:06:29;4.55;;;2.65;;
41061;SDS011;26812;42.662;23.352;2023-08-17T05:08:55;3.40;;;2.05;;
41061;SDS011;26812;42.662;23.352;2023-08-17T05:11:21;3.33;;;2.08;;
41061;SDS011;26812;42.662;23.352;2023-08-17T05:13:47;3.88;;;2.67;;
41061;SDS011;26812;42.662;23.352;2023-08-17T05:16:12;5.07;;;2.65;;
41061;SDS011;26812;42.662;23.352;2023-08-17T05:18:37;4.38;;;2.75;;
41061;SDS011;26812;42.662;23.352;2023-08-17T05:21:03;3.83;;;3.08;;
41061;SDS011;26812;42.662;23.352;2023-08-17T05:23:29;4.65;;;2.83;;
41061;SDS011;26812;42.662;23.352;2023-08-17T05:25:54;8.60;;;3.17;;
41061;SDS011;26812;42.662;23.352;2023-08-17T05:28:19;6.60;;;3.03;;
41061;SDS011;26812;42.662;23.352;2023-08-17T05:30:45;5.57;;;3.00;;
41061;SDS011;26812;42.662;23.352;2023-08-17T05:33:11;3.25;;;2.95;;
41061;SDS011;26812;42.662;23.352;2023-08-17T05:35:36;4.55;;;3.20;;
41061;SDS011;26812;42.662;23.352;2023-08-17T05:38:02;7.45;;;3.58;;
41061;SDS011;26812;42.662;23.352;2023-08-17T05:40:29;4.80;;;3.47;;
41061;SDS011;26812;42.662;23.352;2023-08-17T05:43:01;6.47;;;3.45;;
41061;SDS011;26812;42.662;23.352;2023-08-17T05:45:27;3.97;;;2.70;;
41061;SDS011;26812;42.662;23.352;2023-08-17T05:47:52;6.65;;;3.53;;
41061;SDS011;26812;42.662;23.352;2023-08-17T05:50:18;3.80;;;3.28;;
41061;SDS011;26812;42.662;23.352;2023-08-17T05:52:43;3.42;;;2.72;;
41061;SDS011;26812;42.662;23.352;2023-08-17T05:55:09;3.25;;;2.78;;
41061;SDS011;26812;42.662;23.352;2023-08-17T05:57:34;4.90;;;2.80;;
41061;SDS011;26812;42.662;23.352;2023-08-17T05:59:59;5.20;;;3.33;;
41061;SDS011;26812;42.662;23.352;2023-08-17T06:02:25;4.10;;;3.28;;
41061;SDS011;26812;42.662;23.352;2023-08-17T06:04:50;4.15;;;3.45;;
41061;SDS011;26812;42.662;23.352;2023-08-17T06:07:15;4.05;;;2.70;;
41061;SDS011;26812;42.662;23.352;2023-08-17T06:09:41;5.90;;;3.00;;
41061;SDS011;26812;42.662;23.352;2023-08-17T06:12:06;5.10;;;2.88;;
41061;SDS011;26812;42.662;23.352;2023-08-17T06:14:32;5.13;;;2.47;;
41061;SDS011;26812;42.662;23.352;2023-08-17T06:16:58;5.13;;;3.20;;
41061;SDS011;26812;42.662;23.352;2023-08-17T06:19:23;4.75;;;2.60;;
41061;SDS011;26812;42.662;23.352;2023-08-17T06:21:48;3.75;;;2.50;;
41061;SDS011;26812;42.662;23.352;2023-08-17T06:24:14;4.55;;;2.75;;
41061;SDS011;26812;42.662;23.352;2023-08-17T06:26:39;5.13;;;3.33;;
41061;SDS011;26812;42.662;23.352;2023-08-17T06:29:05;3.58;;;2.38;;
41061;SDS011;26812;42.662;23.352;2023-08-17T06:31:30;4.25;;;2.75;;
41061;SDS011;26812;42.662;23.352;2023-08-17T06:33:56;3.53;;;2.60;;
41061;SDS011;26812;42.662;23.352;2023-08-17T06:36:21;5.38;;;2.95;;
41061;SDS011;26812;42.662;23.352;2023-08-17T06:38:47;3.42;;;2.90;;
41061;SDS011;26812;42.662;23.352;2023-08-17T06:41:12;5.30;;;3.22;;
41061;SDS011;26812;42.662;23.352;2023-08-17T06:43:38;4.82;;;2.97;;
41061;SDS011;26812;42.662;23.352;2023-08-17T06:46:03;3.55;;;3.10;;
41061;SDS011;26812;42.662;23.352;2023-08-17T06:48:29;4.25;;;3.55;;
41061;SDS011;26812;42.662;23.352;2023-08-17T06:50:54;5.85;;;3.85;;
41061;SDS011;26812;42.662;23.352;2023-08-17T06:53:19;4.20;;;3.50;;
41061;SDS011;26812;42.662;23.352;2023-08-17T06:55:45;5.78;;;3.97;;
41061;SDS011;26812;42.662;23.352;2023-08-17T06:58:10;5.57;;;3.83;;
41061;SDS011;26812;42.662;23.352;2023-08-17T07:00:36;5.57;;;3.58;;
41061;SDS011;26812;42.662;23.352;2023-08-17T07:03:04;6.97;;;3.75;;
41061;SDS011;26812;42.662;23.352;2023-08-17T07:05:29;4.85;;;2.80;;
41061;SDS011;26812;42.662;23.352;2023-08-17T07:07:54;3.53;;;3.20;;
41061;SDS011;26812;42.662;23.352;2023-08-17T07:10:20;2.97;;;2.67;;
41061;SDS011;26812;42.662;23.352;2023-08-17T07:12:45;4.55;;;2.88;;
41061;SDS011;26812;42.662;23.352;2023-08-17T07:15:11;3.90;;;2.72;;
41061;SDS011;26812;42.662;23.352;2023-08-17T07:17:37;3.40;;;2.90;;
41061;SDS011;26812;42.662;23.352;2023-08-17T07:20:03;4.32;;;3.65;;
41061;SDS011;26812;42.662;23.352;2023-08-17T07:22:29;4.78;;;2.90;;
41061;SDS011;26812;42.662;23.352;2023-08-17T07:24:55;3.00;;;2.20;;
41061;SDS011;26812;42.662;23.352;2023-08-17T07:27:21;3.28;;;2.67;;
41061;SDS011;26812;42.662;23.352;2023-08-17T07:29:46;3.30;;;2.92;;
41061;SDS011;26812;42.662;23.352;2023-08-17T07:32:12;3.17;;;2.45;;
41061;SDS011;26812;42.662;23.352;2023-08-17T07:34:37;3.20;;;2.60;;
41061;SDS011;26812;42.662;23.352;2023-08-17T07:37:04;2.95;;;2.58;;
41061;SDS011;26812;42.662;23.352;2023-08-17T07:39:29;3.72;;;3.03;;
41061;SDS011;26812;42.662;23.352;2023-08-17T07:41:54;3.13;;;2.83;;
41061;SDS011;26812;42.662;23.352;2023-08-17T07:44:20;5.50;;;2.75;;
41061;SDS011;26812;42.662;23.352;2023-08-17T07:46:45;5.65;;;2.88;;
41061;SDS011;26812;42.662;23.352;2023-08-17T07:49:11;4.03;;;2.67;;
41061;SDS011;26812;42.662;23.352;2023-08-17T07:51:36;3.55;;;3.25;;
41061;SDS011;26812;42.662;23.352;2023-08-17T07:54:01;2.67;;;2.47;;
41061;SDS011;26812;42.662;23.352;2023-08-17T07:56:27;2.03;;;1.85;;
41061;SDS011;26812;42.662;23.352;2023-08-17T07:58:55;3.08;;;2.17;;
41061;SDS011;26812;42.662;23.352;2023-08-17T08:01:21;4.22;;;1.65;;
41061;SDS011;26812;42.662;23.352;2023-08-17T08:03:46;3.58;;;2.28;;
41061;SDS011;26812;42.662;23.352;2023-08-17T08:06:11;2.38;;;2.15;;
41061;SDS011;26812;42.662;23.352;2023-08-17T08:08:37;4.13;;;2.25;;
41061;SDS011;26812;42.662;23.352;2023-08-17T08:11:03;2.53;;;2.33;;
41061;SDS011;26812;42.662;23.352;2023-08-17T08:13:29;2.30;;;2.08;;
41061;SDS011;26812;42.662;23.352;2023-08-17T08:15:55;4.70;;;2.28;;
41061;SDS011;26812;42.662;23.352;2023-08-17T08:18:21;3.70;;;2.17;;
41061;SDS011;26812;42.662;23.352;2023-08-17T08:20:46;2.55;;;2.13;;
41061;SDS011;26812;42.662;23.352;2023-08-17T08:23:13;2.45;;;2.10;;
41061;SDS011;26812;42.662;23.352;2023-08-17T08:25:38;5.28;;;2.47;;
41061;SDS011;26812;42.662;23.352;2023-08-17T08:28:04;4.40;;;2.47;;
41061;SDS011;26812;42.662;23.352;2023-08-17T08:30:29;4.68;;;2.63;;
41061;SDS011;26812;42.662;23.352;2023-08-17T08:32:55;3.05;;;2.33;;
41061;SDS011;26812;42.662;23.352;2023-08-17T08:35:23;3.58;;;2.45;;
41061;SDS011;26812;42.662;23.352;2023-08-17T08:37:49;4.30;;;2.95;;
41061;SDS011;26812;42.662;23.352;2023-08-17T08:40:15;3.63;;;2.80;;
41061;SDS011;26812;42.662;23.352;2023-08-17T08:42:42;3.05;;;2.47;;
41061;SDS011;26812;42.662;23.352;2023-08-17T08:45:08;2.83;;;2.50;;
41061;SDS011;26812;42.662;23.352;2023-08-17T08:47:34;4.63;;;3.05;;
41061;SDS011;26812;42.662;23.352;2023-08-17T08:50:02;5.15;;;2.22;;
41061;SDS011;26812;42.662;23.352;2023-08-17T08:52:39;2.70;;;2.40;;
41061;SDS011;26812;42.662;23.352;2023-08-17T08:57:37;3.25;;;2.38;;
41061;SDS011;26812;42.662;23.352;2023-08-17T09:00:04;3.00;;;2.20;;
41061;SDS011;26812;42.662;23.352;2023-08-17T09:02:31;2.90;;;2.28;;
41061;SDS011;26812;42.662;23.352;2023-08-17T09:04:57;4.38;;;3.20;;
41061;SDS011;26812;42.662;23.352;2023-08-17T09:07:24;4.43;;;2.42;;
41061;SDS011;26812;42.662;23.352;2023-08-17T09:09:51;3.80;;;1.90;;
41061;SDS011;26812;42.662;23.352;2023-08-17T09:12:17;2.72;;;2.30;;
41061;SDS011;26812;42.662;23.352;2023-08-17T09:14:42;2.92;;;2.05;;
41061;SDS011;26812;42.662;23.352;2023-08-17T09:17:08;4.25;;;2.35;;
41061;SDS011;26812;42.662;23.352;2023-08-17T09:19:33;5.32;;;2.60;;
41061;SDS011;26812;42.662;23.352;2023-08-17T09:22:00;2.08;;;1.75;;
41061;SDS011;26812;42.662;23.352;2023-08-17T09:24:34;2.78;;;1.95;;
41061;SDS011;26812;42.662;23.352;2023-08-17T09:27:01;2.35;;;1.85;;
41061;SDS011;26812;42.662;23.352;2023-08-17T09:29:27;3.33;;;2.25;;
41061;SDS011;26812;42.662;23.352;2023-08-17T09:31:58;2.53;;;2.20;;
41061;SDS011;26812;42.662;23.352;2023-08-17T09:34:30;2.78;;;2.30;;
41061;SDS011;26812;42.662;23.352;2023-08-17T09:36:56;3.65;;;2.05;;
41061;SDS011;26812;42.662;23.352;2023-08-17T09:39:21;4.40;;;2.55;;
41061;SDS011;26812;42.662;23.352;2023-08-17T09:41:53;3.78;;;1.83;;
41061;SDS011;26812;42.662;23.352;2023-08-17T09:44:27;2.00;;;1.80;;
41061;SDS011;26812;42.662;23.352;2023-08-17T09:46:55;2.65;;;1.77;;
41061;SDS011;26812;42.662;23.352;2023-08-17T09:49:23;2.63;;;1.73;;
41061;SDS011;26812;42.662;23.352;2023-08-17T09:51:50;2.20;;;2.05;;
41061;SDS011;26812;42.662;23.352;2023-08-17T09:54:22;1.23;;;1.10;;
41061;SDS011;26812;42.662;23.352;2023-08-17T09:56:51;2.30;;;1.90;;
41061;SDS011;26812;42.662;23.352;2023-08-17T09:59:17;2.75;;;1.60;;
41061;SDS011;26812;42.662;23.352;2023-08-17T10:01:43;3.33;;;1.70;;
41061;SDS011;26812;42.662;23.352;2023-08-17T10:04:13;1.98;;;1.58;;
41061;SDS011;26812;42.662;23.352;2023-08-17T10:06:40;2.67;;;1.90;;
41061;SDS011;26812;42.662;23.352;2023-08-17T10:09:07;1.50;;;1.17;;
41061;SDS011;26812;42.662;23.352;2023-08-17T10:11:37;2.85;;;1.80;;
41061;SDS011;26812;42.662;23.352;2023-08-17T10:14:15;1.90;;;1.63;;
41061;SDS011;26812;42.662;23.352;2023-08-17T10:16:49;2.60;;;1.92;;
41061;SDS011;26812;42.662;23.352;2023-08-17T10:22:08;2.53;;;1.65;;
41061;SDS011;26812;42.662;23.352;2023-08-17T10:24:38;1.52;;;1.42;;
41061;SDS011;26812;42.662;23.352;2023-08-17T10:27:04;1.52;;;1.30;;
41061;SDS011;26812;42.662;23.352;2023-08-17T10:29:31;1.75;;;1.38;;
41061;SDS011;26812;42.662;23.352;2023-08-17T10:31:57;2.38;;;1.73;;
41061;SDS011;26812;42.662;23.352;2023-08-17T10:34:25;1.45;;;1.30;;
41061;SDS011;26812;42.662;23.352;2023-08-17T10:36:50;1.92;;;1.45;;
41061;SDS011;26812;42.662;23.352;2023-08-17T10:39:23;2.78;;;1.50;;
41061;SDS011;26812;42.662;23.352;2023-08-17T10:41:51;2.67;;;1.98;;
41061;SDS011;26812;42.662;23.352;2023-08-17T10:44:18;5.10;;;1.58;;
41061;SDS011;26812;42.662;23.352;2023-08-17T10:49:50;2.10;;;1.58;;
41061;SDS011;26812;42.662;23.352;2023-08-17T10:52:24;1.58;;;1.27;;
41061;SDS011;26812;42.662;23.352;2023-08-17T10:54:54;2.83;;;1.10;;
41061;SDS011;26812;42.662;23.352;2023-08-17T10:57:27;2.40;;;1.98;;
41061;SDS011;26812;42.662;23.352;2023-08-17T11:00:06;2.38;;;1.30;;
41061;SDS011;26812;42.662;23.352;2023-08-17T11:02:36;1.95;;;1.75;;
41061;SDS011;26812;42.662;23.352;2023-08-17T11:05:03;1.58;;;1.48;;
41061;SDS011;26812;42.662;23.352;2023-08-17T11:07:39;1.75;;;1.65;;
41061;SDS011;26812;42.662;23.352;2023-08-17T11:10:12;2.58;;;1.80;;
41061;SDS011;26812;42.662;23.352;2023-08-17T11:12:58;5.22;;;1.90;;
41061;SDS011;26812;42.662;23.352;2023-08-17T11:18:04;4.13;;;1.80;;
41061;SDS011;26812;42.662;23.352;2023-08-17T11:20:31;2.88;;;2.40;;
41061;SDS011;26812;42.662;23.352;2023-08-17T11:22:57;2.00;;;1.55;;
41061;SDS011;26812;42.662;23.352;2023-08-17T11:25:23;4.68;;;2.03;;
41061;SDS011;26812;42.662;23.352;2023-08-17T11:27:49;2.90;;;1.70;;
41061;SDS011;26812;42.662;23.352;2023-08-17T11:30:15;3.53;;;2.17;;
41061;SDS011;26812;42.662;23.352;2023-08-17T11:32:41;2.83;;;1.80;;
41061;SDS011;26812;42.662;23.352;2023-08-17T11:35:06;1.90;;;1.80;;
41061;SDS011;26812;42.662;23.352;2023-08-17T11:37:32;1.75;;;1.65;;
41061;SDS011;26812;42.662;23.352;2023-08-17T11:39:57;3.20;;;2.20;;
41061;SDS011;26812;42.662;23.352;2023-08-17T11:42:23;4.72;;;1.80;;
41061;SDS011;26812;42.662;23.352;2023-08-17T11:44:48;4.28;;;2.03;;
41061;SDS011;26812;42.662;23.352;2023-08-17T11:47:13;1.90;;;1.75;;
41061;SDS011;26812;42.662;23.352;2023-08-17T11:49:39;1.98;;;1.70;;
41061;SDS011;26812;42.662;23.352;2023-08-17T11:52:04;2.88;;;2.35;;
41061;SDS011;26812;42.662;23.352;2023-08-17T11:54:32;2.85;;;1.60;;
41061;SDS011;26812;42.662;23.352;2023-08-17T11:56:58;2.72;;;2.13;;
41061;SDS011;26812;42.662;23.352;2023-08-17T11:59:24;2.75;;;2.28;;
41061;SDS011;26812;42.662;23.352;2023-08-17T12:01:49;2.30;;;2.00;;
41061;SDS011;26812;42.662;23.352;2023-08-17T12:04:15;3.65;;;2.28;;
41061;SDS011;26812;42.662;23.352;2023-08-17T12:06:44;2.78;;;1.85;;
41061;SDS011;26812;42.662;23.352;2023-08-17T12:09:10;2.67;;;1.83;;
41061;SDS011;26812;42.662;23.352;2023-08-17T12:11:38;2.42;;;2.22;;
41061;SDS011;26812;42.662;23.352;2023-08-17T12:14:10;3.42;;;2.03;;
41061;SDS011;26812;42.662;23.352;2023-08-17T12:16:47;3.28;;;1.73;;
41061;SDS011;26812;42.662;23.352;2023-08-17T12:19:13;2.17;;;1.95;;
41061;SDS011;26812;42.662;23.352;2023-08-17T12:21:40;2.70;;;2.03;;
41061;SDS011;26812;42.662;23.352;2023-08-17T12:24:08;3.55;;;2.22;;
41061;SDS011;26812;42.662;23.352;2023-08-17T12:26:34;3.15;;;2.25;;
41061;SDS011;26812;42.662;23.352;2023-08-17T12:29:00;3.17;;;2.53;;
41061;SDS011;26812;42.662;23.352;2023-08-17T12:31:30;4.43;;;2.50;;
41061;SDS011;26812;42.662;23.352;2023-08-17T12:33:55;2.45;;;2.25;;
41061;SDS011;26812;42.662;23.352;2023-08-17T12:36:20;2.72;;;1.98;;
41061;SDS011;26812;42.662;23.352;2023-08-17T12:38:46;2.67;;;2.08;;
41061;SDS011;26812;42.662;23.352;2023-08-17T12:41:13;2.50;;;2.30;;
41061;SDS011;26812;42.662;23.352;2023-08-17T12:43:38;2.80;;;2.47;;
41061;SDS011;26812;42.662;23.352;2023-08-17T12:46:04;4.57;;;2.65;;
41061;SDS011;26812;42.662;23.352;2023-08-17T12:48:29;2.15;;;1.92;;
41061;SDS011;26812;42.662;23.352;2023-08-17T12:50:55;2.47;;;2.10;;
41061;SDS011;26812;42.662;23.352;2023-08-17T12:53:21;3.50;;;2.40;;
41061;SDS011;26812;42.662;23.352;2023-08-17T12:55:46;4.07;;;2.60;;
41061;SDS011;26812;42.662;23.352;2023-08-17T12:58:12;4.93;;;2.58;;
41061;SDS011;26812;42.662;23.352;2023-08-17T13:00:37;3.10;;;2.80;;
41061;SDS011;26812;42.662;23.352;2023-08-17T13:03:03;3.33;;;3.00;;
41061;SDS011;26812;42.662;23.352;2023-08-17T13:05:28;3.28;;;2.67;;
41061;SDS011;26812;42.662;23.352;2023-08-17T13:07:54;3.75;;;2.90;;
41061;SDS011;26812;42.662;23.352;2023-08-17T13:10:19;3.53;;;2.38;;
41061;SDS011;26812;42.662;23.352;2023-08-17T13:12:45;3.20;;;2.90;;
41061;SDS011;26812;42.662;23.352;2023-08-17T13:15:12;3.97;;;2.90;;
41061;SDS011;26812;42.662;23.352;2023-08-17T13:17:37;2.67;;;2.47;;
41061;SDS011;26812;42.662;23.352;2023-08-17T13:20:03;2.85;;;2.60;;
41061;SDS011;26812;42.662;23.352;2023-08-17T13:22:30;2.90;;;2.67;;
41061;SDS011;26812;42.662;23.352;2023-08-17T13:24:56;4.80;;;3.22;;
41061;SDS011;26812;42.662;23.352;2023-08-17T13:27:21;2.65;;;2.33;;
41061;SDS011;26812;42.662;23.352;2023-08-17T13:29:47;3.65;;;2.88;;
41061;SDS011;26812;42.662;23.352;2023-08-17T13:32:12;6.25;;;4.13;;
41061;SDS011;26812;42.662;23.352;2023-08-17T13:34:37;3.80;;;3.20;;
41061;SDS011;26812;42.662;23.352;2023-08-17T13:37:03;4.15;;;3.13;;
41061;SDS011;26812;42.662;23.352;2023-08-17T13:39:28;4.13;;;3.08;;
41061;SDS011;26812;42.662;23.352;2023-08-17T13:41:54;5.40;;;3.40;;
41061;SDS011;26812;42.662;23.352;2023-08-17T13:44:19;4.20;;;2.58;;
41061;SDS011;26812;42.662;23.352;2023-08-17T13:46:51;3.40;;;3.10;;
41061;SDS011;26812;42.662;23.352;2023-08-17T13:49:17;3.22;;;2.92;;
41061;SDS011;26812;42.662;23.352;2023-08-17T13:51:42;5.53;;;3.28;;
41061;SDS011;26812;42.662;23.352;2023-08-17T13:54:07;5.53;;;3.40;;
41061;SDS011;26812;42.662;23.352;2023-08-17T13:56:33;3.92;;;3.40;;
41061;SDS011;26812;42.662;23.352;2023-08-17T13:58:58;3.30;;;2.97;;
41061;SDS011;26812;42.662;23.352;2023-08-17T14:01:23;2.95;;;2.67;;
41061;SDS011;26812;42.662;23.352;2023-08-17T14:03:49;2.90;;;2.70;;
41061;SDS011;26812;42.662;23.352;2023-08-17T14:06:14;3.63;;;2.78;;
41061;SDS011;26812;42.662;23.352;2023-08-17T14:08:40;2.45;;;2.25;;
41061;SDS011;26812;42.662;23.352;2023-08-17T14:11:06;3.22;;;2.67;;
41061;SDS011;26812;42.662;23.352;2023-08-17T14:13:32;3.13;;;2.83;;
41061;SDS011;26812;42.662;23.352;2023-08-17T14:15:59;4.80;;;2.88;;
41061;SDS011;26812;42.662;23.352;2023-08-17T14:18:24;4.20;;;3.33;;
41061;SDS011;26812;42.662;23.352;2023-08-17T14:20:50;3.22;;;2.83;;
41061;SDS011;26812;42.662;23.352;2023-08-17T14:23:16;3.38;;;2.45;;
41061;SDS011;26812;42.662;23.352;2023-08-17T14:25:42;2.90;;;1.95;;
41061;SDS011;26812;42.662;23.352;2023-08-17T14:28:07;4.10;;;3.13;;
41061;SDS011;26812;42.662;23.352;2023-08-17T14:30:33;2.72;;;2.22;;
41061;SDS011;26812;42.662;23.352;2023-08-17T14:32:58;2.55;;;2.35;;
41061;SDS011;26812;42.662;23.352;2023-08-17T14:35:24;4.07;;;2.70;;
41061;SDS011;26812;42.662;23.352;2023-08-17T14:37:49;3.40;;;3.10;;
41061;SDS011;26812;42.662;23.352;2023-08-17T14:40:22;4.00;;;2.53;;
41061;SDS011;26812;42.662;23.352;2023-08-17T14:42:54;3.03;;;2.83;;